sensor_id;sensor_type;location;lat;lon;timestamp;P1;durP1;ratioP1;P2;durP2;ratioP2
34741;SDS011;20968;42.696;23.360;2023-07-13T00:00:46;5.30;;;3.03;;
34741;SDS011;20968;42.696;23.360;2023-07-13T00:03:11;3.35;;;2.58;;
34741;SDS011;20968;42.696;23.360;2023-07-13T00:05:38;4.82;;;2.97;;
34741;SDS011;20968;42.696;23.360;2023-07-13T00:08:04;4.03;;;3.00;;
34741;SDS011;20968;42.696;23.360;2023-07-13T00:10:30;5.50;;;2.53;;
34741;SDS011;20968;42.696;23.360;2023-07-13T00:12:55;5.15;;;3.28;;
34741;SDS011;20968;42.696;23.360;2023-07-13T00:15:24;3.28;;;2.65;;
34741;SDS011;20968;42.696;23.360;2023-07-13T00:17:51;6.00;;;3.33;;
34741;SDS011;20968;42.696;23.360;2023-07-13T00:20:20;5.55;;;3.47;;
34741;SDS011;20968;42.696;23.360;2023-07-13T00:22:48;4.35;;;2.90;;
34741;SDS011;20968;42.696;23.360;2023-07-13T00:25:14;8.65;;;3.17;;
34741;SDS011;20968;42.696;23.360;2023-07-13T00:27:41;4.43;;;2.53;;
34741;SDS011;20968;42.696;23.360;2023-07-13T00:30:07;10.50;;;3.53;;
34741;SDS011;20968;42.696;23.360;2023-07-13T00:32:34;5.20;;;2.90;;
34741;SDS011;20968;42.696;23.360;2023-07-13T00:35:00;4.07;;;3.20;;
34741;SDS011;20968;42.696;23.360;2023-07-13T00:37:26;5.63;;;3.28;;
34741;SDS011;20968;42.696;23.360;2023-07-13T00:39:51;5.38;;;3.17;;
34741;SDS011;20968;42.696;23.360;2023-07-13T00:42:17;5.18;;;2.83;;
34741;SDS011;20968;42.696;23.360;2023-07-13T00:45:00;6.32;;;3.33;;
34741;SDS011;20968;42.696;23.360;2023-07-13T00:47:38;5.07;;;3.38;;
34741;SDS011;20968;42.696;23.360;2023-07-13T00:50:08;6.50;;;3.72;;
34741;SDS011;20968;42.696;23.360;2023-07-13T00:52:36;6.85;;;3.92;;
34741;SDS011;20968;42.696;23.360;2023-07-13T00:55:04;6.45;;;3.92;;
34741;SDS011;20968;42.696;23.360;2023-07-13T00:57:30;5.80;;;3.42;;
34741;SDS011;20968;42.696;23.360;2023-07-13T00:59:57;5.72;;;4.32;;
34741;SDS011;20968;42.696;23.360;2023-07-13T01:02:25;11.60;;;4.15;;
34741;SDS011;20968;42.696;23.360;2023-07-13T01:04:53;7.43;;;4.57;;
34741;SDS011;20968;42.696;23.360;2023-07-13T01:07:18;7.82;;;4.82;;
34741;SDS011;20968;42.696;23.360;2023-07-13T01:09:44;5.20;;;3.97;;
34741;SDS011;20968;42.696;23.360;2023-07-13T01:12:10;5.35;;;4.10;;
34741;SDS011;20968;42.696;23.360;2023-07-13T01:14:36;6.20;;;4.45;;
34741;SDS011;20968;42.696;23.360;2023-07-13T01:17:03;6.25;;;3.47;;
34741;SDS011;20968;42.696;23.360;2023-07-13T01:22:10;7.38;;;3.80;;
34741;SDS011;20968;42.696;23.360;2023-07-13T01:24:38;10.33;;;4.20;;
34741;SDS011;20968;42.696;23.360;2023-07-13T01:27:06;6.07;;;4.20;;
34741;SDS011;20968;42.696;23.360;2023-07-13T01:29:33;5.78;;;4.13;;
34741;SDS011;20968;42.696;23.360;2023-07-13T01:31:59;4.82;;;3.78;;
34741;SDS011;20968;42.696;23.360;2023-07-13T01:34:26;9.55;;;4.07;;
34741;SDS011;20968;42.696;23.360;2023-07-13T01:36:52;9.85;;;3.78;;
34741;SDS011;20968;42.696;23.360;2023-07-13T01:39:21;7.32;;;3.95;;
34741;SDS011;20968;42.696;23.360;2023-07-13T01:41:47;4.93;;;3.85;;
34741;SDS011;20968;42.696;23.360;2023-07-13T01:44:13;5.65;;;4.22;;
34741;SDS011;20968;42.696;23.360;2023-07-13T01:46:39;5.53;;;3.80;;
34741;SDS011;20968;42.696;23.360;2023-07-13T01:49:04;14.23;;;4.65;;
34741;SDS011;20968;42.696;23.360;2023-07-13T01:51:29;12.07;;;3.67;;
34741;SDS011;20968;42.696;23.360;2023-07-13T01:53:55;8.30;;;3.88;;
34741;SDS011;20968;42.696;23.360;2023-07-13T01:56:20;5.05;;;3.72;;
34741;SDS011;20968;42.696;23.360;2023-07-13T01:58:46;11.07;;;5.22;;
34741;SDS011;20968;42.696;23.360;2023-07-13T02:01:12;9.25;;;4.25;;
34741;SDS011;20968;42.696;23.360;2023-07-13T02:03:37;7.60;;;4.43;;
34741;SDS011;20968;42.696;23.360;2023-07-13T02:06:03;8.43;;;4.40;;
34741;SDS011;20968;42.696;23.360;2023-07-13T02:08:28;5.05;;;3.53;;
34741;SDS011;20968;42.696;23.360;2023-07-13T02:10:54;6.90;;;3.95;;
34741;SDS011;20968;42.696;23.360;2023-07-13T02:13:19;5.72;;;3.63;;
34741;SDS011;20968;42.696;23.360;2023-07-13T02:15:44;5.70;;;4.65;;
34741;SDS011;20968;42.696;23.360;2023-07-13T02:18:10;10.80;;;4.43;;
34741;SDS011;20968;42.696;23.360;2023-07-13T02:20:35;8.05;;;4.18;;
34741;SDS011;20968;42.696;23.360;2023-07-13T02:23:01;9.80;;;4.72;;
34741;SDS011;20968;42.696;23.360;2023-07-13T02:25:26;8.48;;;5.85;;
34741;SDS011;20968;42.696;23.360;2023-07-13T02:27:52;10.98;;;5.32;;
34741;SDS011;20968;42.696;23.360;2023-07-13T02:30:17;8.55;;;4.63;;
34741;SDS011;20968;42.696;23.360;2023-07-13T02:32:43;9.98;;;4.63;;
34741;SDS011;20968;42.696;23.360;2023-07-13T02:35:09;5.30;;;4.32;;
34741;SDS011;20968;42.696;23.360;2023-07-13T02:37:35;8.52;;;3.80;;
34741;SDS011;20968;42.696;23.360;2023-07-13T02:40:00;7.82;;;4.07;;
34741;SDS011;20968;42.696;23.360;2023-07-13T02:42:29;7.68;;;5.15;;
34741;SDS011;20968;42.696;23.360;2023-07-13T02:44:54;9.05;;;4.82;;
34741;SDS011;20968;42.696;23.360;2023-07-13T02:47:20;10.20;;;5.18;;
34741;SDS011;20968;42.696;23.360;2023-07-13T02:49:45;8.95;;;4.40;;
34741;SDS011;20968;42.696;23.360;2023-07-13T02:52:10;9.98;;;5.65;;
34741;SDS011;20968;42.696;23.360;2023-07-13T02:54:36;8.38;;;4.43;;
34741;SDS011;20968;42.696;23.360;2023-07-13T02:57:01;9.93;;;4.57;;
34741;SDS011;20968;42.696;23.360;2023-07-13T02:59:27;7.10;;;4.18;;
34741;SDS011;20968;42.696;23.360;2023-07-13T03:01:53;6.20;;;4.30;;
34741;SDS011;20968;42.696;23.360;2023-07-13T03:04:19;9.35;;;5.53;;
34741;SDS011;20968;42.696;23.360;2023-07-13T03:06:44;14.00;;;5.40;;
34741;SDS011;20968;42.696;23.360;2023-07-13T03:09:11;6.43;;;4.13;;
34741;SDS011;20968;42.696;23.360;2023-07-13T03:11:37;11.18;;;5.03;;
34741;SDS011;20968;42.696;23.360;2023-07-13T03:14:03;14.52;;;5.82;;
34741;SDS011;20968;42.696;23.360;2023-07-13T03:16:28;12.57;;;5.15;;
34741;SDS011;20968;42.696;23.360;2023-07-13T03:18:54;9.20;;;4.82;;
34741;SDS011;20968;42.696;23.360;2023-07-13T03:21:20;14.30;;;6.13;;
34741;SDS011;20968;42.696;23.360;2023-07-13T03:23:46;12.82;;;5.60;;
34741;SDS011;20968;42.696;23.360;2023-07-13T03:26:12;11.80;;;5.75;;
34741;SDS011;20968;42.696;23.360;2023-07-13T03:28:40;16.55;;;6.68;;
34741;SDS011;20968;42.696;23.360;2023-07-13T03:31:08;11.43;;;5.05;;
34741;SDS011;20968;42.696;23.360;2023-07-13T03:33:36;5.63;;;4.65;;
34741;SDS011;20968;42.696;23.360;2023-07-13T03:36:02;6.45;;;4.45;;
34741;SDS011;20968;42.696;23.360;2023-07-13T03:38:29;5.95;;;4.32;;
34741;SDS011;20968;42.696;23.360;2023-07-13T03:40:54;7.68;;;4.10;;
34741;SDS011;20968;42.696;23.360;2023-07-13T03:43:20;7.30;;;4.78;;
34741;SDS011;20968;42.696;23.360;2023-07-13T03:45:46;6.65;;;4.97;;
34741;SDS011;20968;42.696;23.360;2023-07-13T03:48:11;5.60;;;4.32;;
34741;SDS011;20968;42.696;23.360;2023-07-13T03:50:37;6.90;;;5.25;;
34741;SDS011;20968;42.696;23.360;2023-07-13T03:53:03;7.13;;;5.13;;
34741;SDS011;20968;42.696;23.360;2023-07-13T03:55:29;8.38;;;5.78;;
34741;SDS011;20968;42.696;23.360;2023-07-13T03:57:59;8.60;;;5.10;;
34741;SDS011;20968;42.696;23.360;2023-07-13T04:00:26;11.55;;;5.03;;
34741;SDS011;20968;42.696;23.360;2023-07-13T04:02:51;8.32;;;4.72;;
34741;SDS011;20968;42.696;23.360;2023-07-13T04:05:17;9.45;;;5.07;;
34741;SDS011;20968;42.696;23.360;2023-07-13T04:07:43;9.30;;;4.82;;
34741;SDS011;20968;42.696;23.360;2023-07-13T04:10:09;7.32;;;5.40;;
34741;SDS011;20968;42.696;23.360;2023-07-13T04:12:34;7.45;;;5.13;;
34741;SDS011;20968;42.696;23.360;2023-07-13T04:15:00;8.90;;;5.47;;
34741;SDS011;20968;42.696;23.360;2023-07-13T04:17:25;8.70;;;5.40;;
34741;SDS011;20968;42.696;23.360;2023-07-13T04:19:51;7.00;;;5.07;;
34741;SDS011;20968;42.696;23.360;2023-07-13T04:22:16;9.25;;;6.03;;
34741;SDS011;20968;42.696;23.360;2023-07-13T04:24:42;11.88;;;6.10;;
34741;SDS011;20968;42.696;23.360;2023-07-13T04:27:07;9.27;;;5.63;;
34741;SDS011;20968;42.696;23.360;2023-07-13T04:29:33;17.27;;;6.50;;
34741;SDS011;20968;42.696;23.360;2023-07-13T04:31:58;10.02;;;5.68;;
34741;SDS011;20968;42.696;23.360;2023-07-13T04:34:24;13.00;;;7.15;;
34741;SDS011;20968;42.696;23.360;2023-07-13T04:36:49;17.80;;;6.18;;
34741;SDS011;20968;42.696;23.360;2023-07-13T04:39:17;11.32;;;5.82;;
34741;SDS011;20968;42.696;23.360;2023-07-13T04:41:42;8.15;;;5.95;;
34741;SDS011;20968;42.696;23.360;2023-07-13T04:44:08;11.63;;;6.85;;
34741;SDS011;20968;42.696;23.360;2023-07-13T04:46:33;12.60;;;6.47;;
34741;SDS011;20968;42.696;23.360;2023-07-13T04:48:59;8.98;;;6.30;;
34741;SDS011;20968;42.696;23.360;2023-07-13T04:51:25;11.20;;;6.53;;
34741;SDS011;20968;42.696;23.360;2023-07-13T04:53:51;9.98;;;6.25;;
34741;SDS011;20968;42.696;23.360;2023-07-13T04:56:17;17.58;;;6.65;;
34741;SDS011;20968;42.696;23.360;2023-07-13T04:58:44;9.57;;;5.68;;
34741;SDS011;20968;42.696;23.360;2023-07-13T05:01:10;9.75;;;6.97;;
34741;SDS011;20968;42.696;23.360;2023-07-13T05:03:35;9.70;;;7.53;;
34741;SDS011;20968;42.696;23.360;2023-07-13T05:06:03;12.85;;;7.22;;
34741;SDS011;20968;42.696;23.360;2023-07-13T05:08:30;16.95;;;7.05;;
34741;SDS011;20968;42.696;23.360;2023-07-13T05:10:56;10.27;;;6.32;;
34741;SDS011;20968;42.696;23.360;2023-07-13T05:13:21;7.72;;;5.40;;
34741;SDS011;20968;42.696;23.360;2023-07-13T05:15:55;11.48;;;6.97;;
34741;SDS011;20968;42.696;23.360;2023-07-13T05:18:22;12.57;;;7.97;;
34741;SDS011;20968;42.696;23.360;2023-07-13T05:20:54;18.13;;;8.68;;
34741;SDS011;20968;42.696;23.360;2023-07-13T05:23:22;16.92;;;8.20;;
34741;SDS011;20968;42.696;23.360;2023-07-13T05:25:48;16.40;;;9.13;;
34741;SDS011;20968;42.696;23.360;2023-07-13T05:28:13;17.02;;;7.70;;
34741;SDS011;20968;42.696;23.360;2023-07-13T05:30:38;13.50;;;7.47;;
34741;SDS011;20968;42.696;23.360;2023-07-13T05:33:04;13.52;;;7.15;;
34741;SDS011;20968;42.696;23.360;2023-07-13T05:35:29;20.50;;;8.57;;
34741;SDS011;20968;42.696;23.360;2023-07-13T05:37:54;13.27;;;7.60;;
34741;SDS011;20968;42.696;23.360;2023-07-13T05:40:20;16.63;;;8.75;;
34741;SDS011;20968;42.696;23.360;2023-07-13T05:42:45;12.93;;;7.50;;
34741;SDS011;20968;42.696;23.360;2023-07-13T05:45:11;9.15;;;5.55;;
34741;SDS011;20968;42.696;23.360;2023-07-13T05:47:36;11.65;;;6.43;;
34741;SDS011;20968;42.696;23.360;2023-07-13T05:50:01;10.43;;;6.95;;
34741;SDS011;20968;42.696;23.360;2023-07-13T05:52:27;9.13;;;5.65;;
34741;SDS011;20968;42.696;23.360;2023-07-13T05:54:53;13.00;;;6.72;;
34741;SDS011;20968;42.696;23.360;2023-07-13T05:57:18;14.77;;;8.02;;
34741;SDS011;20968;42.696;23.360;2023-07-13T05:59:43;11.13;;;6.05;;
34741;SDS011;20968;42.696;23.360;2023-07-13T06:02:09;9.32;;;5.65;;
34741;SDS011;20968;42.696;23.360;2023-07-13T06:04:35;15.70;;;8.25;;
34741;SDS011;20968;42.696;23.360;2023-07-13T06:07:01;13.75;;;6.90;;
34741;SDS011;20968;42.696;23.360;2023-07-13T06:09:26;12.77;;;7.30;;
34741;SDS011;20968;42.696;23.360;2023-07-13T06:11:52;17.45;;;8.38;;
34741;SDS011;20968;42.696;23.360;2023-07-13T06:14:17;11.13;;;7.07;;
34741;SDS011;20968;42.696;23.360;2023-07-13T06:16:42;11.70;;;7.20;;
34741;SDS011;20968;42.696;23.360;2023-07-13T06:19:08;10.27;;;6.30;;
34741;SDS011;20968;42.696;23.360;2023-07-13T06:21:33;13.60;;;6.07;;
34741;SDS011;20968;42.696;23.360;2023-07-13T06:23:59;12.02;;;6.32;;
34741;SDS011;20968;42.696;23.360;2023-07-13T06:26:24;22.20;;;8.73;;
34741;SDS011;20968;42.696;23.360;2023-07-13T06:28:50;7.72;;;6.18;;
34741;SDS011;20968;42.696;23.360;2023-07-13T06:31:15;7.45;;;5.97;;
34741;SDS011;20968;42.696;23.360;2023-07-13T06:33:41;11.82;;;6.75;;
34741;SDS011;20968;42.696;23.360;2023-07-13T06:36:06;8.68;;;5.50;;
34741;SDS011;20968;42.696;23.360;2023-07-13T06:38:34;7.68;;;5.35;;
34741;SDS011;20968;42.696;23.360;2023-07-13T06:41:00;10.05;;;5.88;;
34741;SDS011;20968;42.696;23.360;2023-07-13T06:43:25;8.77;;;5.28;;
34741;SDS011;20968;42.696;23.360;2023-07-13T06:45:51;8.52;;;5.72;;
34741;SDS011;20968;42.696;23.360;2023-07-13T06:48:18;11.43;;;6.55;;
34741;SDS011;20968;42.696;23.360;2023-07-13T06:50:45;7.07;;;5.15;;
34741;SDS011;20968;42.696;23.360;2023-07-13T06:53:11;8.25;;;5.70;;
34741;SDS011;20968;42.696;23.360;2023-07-13T06:55:38;9.35;;;5.63;;
34741;SDS011;20968;42.696;23.360;2023-07-13T06:58:03;7.05;;;5.22;;
34741;SDS011;20968;42.696;23.360;2023-07-13T07:00:29;10.15;;;5.22;;
34741;SDS011;20968;42.696;23.360;2023-07-13T07:02:55;8.23;;;5.57;;
34741;SDS011;20968;42.696;23.360;2023-07-13T07:05:20;11.13;;;5.63;;
34741;SDS011;20968;42.696;23.360;2023-07-13T07:07:47;8.07;;;5.13;;
34741;SDS011;20968;42.696;23.360;2023-07-13T07:10:15;9.10;;;6.07;;
34741;SDS011;20968;42.696;23.360;2023-07-13T07:12:41;6.70;;;4.70;;
34741;SDS011;20968;42.696;23.360;2023-07-13T07:15:07;9.43;;;5.32;;
34741;SDS011;20968;42.696;23.360;2023-07-13T07:17:32;8.95;;;4.90;;
34741;SDS011;20968;42.696;23.360;2023-07-13T07:19:58;4.97;;;4.47;;
34741;SDS011;20968;42.696;23.360;2023-07-13T07:22:23;8.20;;;5.38;;
34741;SDS011;20968;42.696;23.360;2023-07-13T07:24:52;9.27;;;5.22;;
34741;SDS011;20968;42.696;23.360;2023-07-13T07:27:17;5.80;;;4.55;;
34741;SDS011;20968;42.696;23.360;2023-07-13T07:29:43;9.32;;;5.80;;
34741;SDS011;20968;42.696;23.360;2023-07-13T07:32:08;13.80;;;5.57;;
34741;SDS011;20968;42.696;23.360;2023-07-13T07:34:34;10.27;;;4.97;;
34741;SDS011;20968;42.696;23.360;2023-07-13T07:36:59;7.82;;;5.35;;
34741;SDS011;20968;42.696;23.360;2023-07-13T07:39:26;7.70;;;5.43;;
34741;SDS011;20968;42.696;23.360;2023-07-13T07:41:52;6.47;;;4.75;;
34741;SDS011;20968;42.696;23.360;2023-07-13T07:44:17;8.73;;;4.78;;
34741;SDS011;20968;42.696;23.360;2023-07-13T07:46:43;15.05;;;5.30;;
34741;SDS011;20968;42.696;23.360;2023-07-13T07:49:08;6.22;;;4.93;;
34741;SDS011;20968;42.696;23.360;2023-07-13T07:51:34;8.13;;;5.68;;
34741;SDS011;20968;42.696;23.360;2023-07-13T07:53:59;6.90;;;5.15;;
34741;SDS011;20968;42.696;23.360;2023-07-13T07:56:24;10.75;;;5.30;;
34741;SDS011;20968;42.696;23.360;2023-07-13T07:58:50;7.97;;;5.40;;
34741;SDS011;20968;42.696;23.360;2023-07-13T08:01:15;13.13;;;5.15;;
34741;SDS011;20968;42.696;23.360;2023-07-13T08:03:41;7.15;;;4.70;;
34741;SDS011;20968;42.696;23.360;2023-07-13T08:06:06;7.68;;;4.65;;
34741;SDS011;20968;42.696;23.360;2023-07-13T08:08:32;7.18;;;5.22;;
34741;SDS011;20968;42.696;23.360;2023-07-13T08:10:57;11.25;;;4.68;;
34741;SDS011;20968;42.696;23.360;2023-07-13T08:13:22;18.45;;;5.85;;
34741;SDS011;20968;42.696;23.360;2023-07-13T08:15:48;9.35;;;4.88;;
34741;SDS011;20968;42.696;23.360;2023-07-13T08:18:14;10.35;;;4.90;;
34741;SDS011;20968;42.696;23.360;2023-07-13T08:20:40;9.45;;;4.90;;
34741;SDS011;20968;42.696;23.360;2023-07-13T08:23:06;5.90;;;4.57;;
34741;SDS011;20968;42.696;23.360;2023-07-13T08:25:34;4.70;;;4.20;;
34741;SDS011;20968;42.696;23.360;2023-07-13T08:27:59;8.60;;;4.53;;
34741;SDS011;20968;42.696;23.360;2023-07-13T08:30:25;15.68;;;6.90;;
34741;SDS011;20968;42.696;23.360;2023-07-13T08:32:51;12.40;;;7.32;;
34741;SDS011;20968;42.696;23.360;2023-07-13T08:35:16;9.95;;;5.55;;
34741;SDS011;20968;42.696;23.360;2023-07-13T08:37:42;11.07;;;4.95;;
34741;SDS011;20968;42.696;23.360;2023-07-13T08:40:08;10.93;;;5.40;;
34741;SDS011;20968;42.696;23.360;2023-07-13T08:48:35;13.43;;;5.38;;
34741;SDS011;20968;42.696;23.360;2023-07-13T08:50:51;9.13;;;5.43;;
34741;SDS011;20968;42.696;23.360;2023-07-13T08:53:19;8.38;;;4.75;;
34741;SDS011;20968;42.696;23.360;2023-07-13T08:55:48;6.55;;;4.43;;
34741;SDS011;20968;42.696;23.360;2023-07-13T08:58:22;10.13;;;5.13;;
34741;SDS011;20968;42.696;23.360;2023-07-13T09:03:43;6.88;;;5.35;;
34741;SDS011;20968;42.696;23.360;2023-07-13T09:06:18;10.27;;;4.80;;
34741;SDS011;20968;42.696;23.360;2023-07-13T09:08:54;7.28;;;4.47;;
34741;SDS011;20968;42.696;23.360;2023-07-13T09:11:52;11.43;;;5.57;;
34741;SDS011;20968;42.696;23.360;2023-07-13T09:14:45;10.15;;;5.18;;
34741;SDS011;20968;42.696;23.360;2023-07-13T09:19:44;15.23;;;5.35;;
34741;SDS011;20968;42.696;23.360;2023-07-13T09:22:13;14.40;;;5.45;;
34741;SDS011;20968;42.696;23.360;2023-07-13T09:27:17;11.85;;;4.93;;
34741;SDS011;20968;42.696;23.360;2023-07-13T09:30:15;8.93;;;5.78;;
34741;SDS011;20968;42.696;23.360;2023-07-13T09:32:51;10.30;;;6.00;;
34741;SDS011;20968;42.696;23.360;2023-07-13T09:35:25;18.60;;;5.75;;
34741;SDS011;20968;42.696;23.360;2023-07-13T09:37:56;13.63;;;5.45;;
34741;SDS011;20968;42.696;23.360;2023-07-13T09:43:27;10.25;;;5.15;;
34741;SDS011;20968;42.696;23.360;2023-07-13T09:45:54;16.52;;;5.53;;
34741;SDS011;20968;42.696;23.360;2023-07-13T09:48:20;9.70;;;5.60;;
34741;SDS011;20968;42.696;23.360;2023-07-13T09:50:46;9.10;;;5.53;;
34741;SDS011;20968;42.696;23.360;2023-07-13T09:53:12;8.70;;;5.18;;
34741;SDS011;20968;42.696;23.360;2023-07-13T09:55:42;13.10;;;7.38;;
34741;SDS011;20968;42.696;23.360;2023-07-13T10:00:53;11.05;;;5.93;;
34741;SDS011;20968;42.696;23.360;2023-07-13T10:03:29;10.77;;;5.38;;
34741;SDS011;20968;42.696;23.360;2023-07-13T10:06:18;10.63;;;5.18;;
34741;SDS011;20968;42.696;23.360;2023-07-13T10:08:47;8.38;;;4.85;;
34741;SDS011;20968;42.696;23.360;2023-07-13T10:11:20;14.80;;;5.43;;
34741;SDS011;20968;42.696;23.360;2023-07-13T10:13:58;7.63;;;4.57;;
34741;SDS011;20968;42.696;23.360;2023-07-13T10:16:31;6.88;;;4.50;;
34741;SDS011;20968;42.696;23.360;2023-07-13T10:18:59;7.00;;;4.57;;
34741;SDS011;20968;42.696;23.360;2023-07-13T10:21:35;4.70;;;4.20;;
34741;SDS011;20968;42.696;23.360;2023-07-13T10:24:10;9.23;;;4.47;;
34741;SDS011;20968;42.696;23.360;2023-07-13T10:26:45;8.13;;;4.68;;
34741;SDS011;20968;42.696;23.360;2023-07-13T10:29:17;5.20;;;3.92;;
34741;SDS011;20968;42.696;23.360;2023-07-13T10:31:44;7.63;;;3.88;;
34741;SDS011;20968;42.696;23.360;2023-07-13T10:34:13;5.65;;;3.42;;
34741;SDS011;20968;42.696;23.360;2023-07-13T10:36:40;6.80;;;4.03;;
34741;SDS011;20968;42.696;23.360;2023-07-13T10:39:10;7.55;;;3.35;;
34741;SDS011;20968;42.696;23.360;2023-07-13T10:41:42;9.73;;;4.18;;
34741;SDS011;20968;42.696;23.360;2023-07-13T10:44:15;15.45;;;3.92;;
34741;SDS011;20968;42.696;23.360;2023-07-13T10:46:46;6.32;;;3.40;;
34741;SDS011;20968;42.696;23.360;2023-07-13T10:49:13;5.72;;;2.90;;
34741;SDS011;20968;42.696;23.360;2023-07-13T10:51:39;7.95;;;3.90;;
34741;SDS011;20968;42.696;23.360;2023-07-13T10:56:41;9.82;;;3.30;;
34741;SDS011;20968;42.696;23.360;2023-07-13T10:59:11;12.73;;;2.92;;
34741;SDS011;20968;42.696;23.360;2023-07-13T11:04:27;25.25;;;4.88;;
34741;SDS011;20968;42.696;23.360;2023-07-13T11:07:09;5.85;;;2.78;;
34741;SDS011;20968;42.696;23.360;2023-07-13T11:09:43;6.03;;;3.20;;
34741;SDS011;20968;42.696;23.360;2023-07-13T11:22:46;8.85;;;3.50;;
34741;SDS011;20968;42.696;23.360;2023-07-13T11:25:26;6.80;;;3.53;;
34741;SDS011;20968;42.696;23.360;2023-07-13T11:30:42;4.47;;;3.28;;
34741;SDS011;20968;42.696;23.360;2023-07-13T11:36:04;7.45;;;3.97;;
34741;SDS011;20968;42.696;23.360;2023-07-13T11:38:33;8.77;;;3.53;;
34741;SDS011;20968;42.696;23.360;2023-07-13T11:41:19;8.02;;;3.22;;
34741;SDS011;20968;42.696;23.360;2023-07-13T11:43:50;8.75;;;3.15;;
34741;SDS011;20968;42.696;23.360;2023-07-13T11:46:26;6.72;;;3.70;;
34741;SDS011;20968;42.696;23.360;2023-07-13T11:48:53;5.40;;;2.92;;
34741;SDS011;20968;42.696;23.360;2023-07-13T11:51:23;12.30;;;3.40;;
34741;SDS011;20968;42.696;23.360;2023-07-13T11:53:54;6.13;;;2.80;;
34741;SDS011;20968;42.696;23.360;2023-07-13T11:56:22;9.35;;;3.10;;
34741;SDS011;20968;42.696;23.360;2023-07-13T11:58:50;7.10;;;3.30;;
34741;SDS011;20968;42.696;23.360;2023-07-13T12:01:23;9.65;;;3.25;;
34741;SDS011;20968;42.696;23.360;2023-07-13T12:06:36;6.68;;;3.40;;
34741;SDS011;20968;42.696;23.360;2023-07-13T12:09:10;5.50;;;3.33;;
34741;SDS011;20968;42.696;23.360;2023-07-13T12:11:39;9.88;;;3.42;;
34741;SDS011;20968;42.696;23.360;2023-07-13T12:14:06;8.60;;;3.15;;
34741;SDS011;20968;42.696;23.360;2023-07-13T12:16:36;6.82;;;2.50;;
34741;SDS011;20968;42.696;23.360;2023-07-13T12:19:02;5.88;;;3.30;;
34741;SDS011;20968;42.696;23.360;2023-07-13T12:21:32;9.77;;;3.13;;
34741;SDS011;20968;42.696;23.360;2023-07-13T12:23:59;14.35;;;3.20;;
34741;SDS011;20968;42.696;23.360;2023-07-13T12:26:28;8.48;;;3.13;;
34741;SDS011;20968;42.696;23.360;2023-07-13T12:28:55;8.93;;;3.90;;
34741;SDS011;20968;42.696;23.360;2023-07-13T12:34:00;9.18;;;2.97;;
34741;SDS011;20968;42.696;23.360;2023-07-13T12:36:31;4.95;;;3.20;;
34741;SDS011;20968;42.696;23.360;2023-07-13T12:39:12;6.82;;;2.53;;
34741;SDS011;20968;42.696;23.360;2023-07-13T12:41:40;5.68;;;3.35;;
34741;SDS011;20968;42.696;23.360;2023-07-13T12:44:13;4.60;;;2.90;;
34741;SDS011;20968;42.696;23.360;2023-07-13T12:46:51;8.00;;;3.20;;
34741;SDS011;20968;42.696;23.360;2023-07-13T12:49:26;7.45;;;3.15;;
34741;SDS011;20968;42.696;23.360;2023-07-13T12:51:58;9.43;;;3.15;;
34741;SDS011;20968;42.696;23.360;2023-07-13T12:54:25;6.28;;;3.15;;
34741;SDS011;20968;42.696;23.360;2023-07-13T12:56:52;5.75;;;2.80;;
34741;SDS011;20968;42.696;23.360;2023-07-13T12:59:22;10.50;;;3.53;;
34741;SDS011;20968;42.696;23.360;2023-07-13T13:01:48;6.03;;;3.35;;
34741;SDS011;20968;42.696;23.360;2023-07-13T13:04:15;6.78;;;2.72;;
34741;SDS011;20968;42.696;23.360;2023-07-13T13:06:41;7.93;;;4.57;;
34741;SDS011;20968;42.696;23.360;2023-07-13T13:09:11;7.32;;;3.13;;
34741;SDS011;20968;42.696;23.360;2023-07-13T13:11:39;10.85;;;3.65;;
34741;SDS011;20968;42.696;23.360;2023-07-13T13:14:08;13.55;;;3.33;;
34741;SDS011;20968;42.696;23.360;2023-07-13T13:19:05;11.50;;;3.70;;
34741;SDS011;20968;42.696;23.360;2023-07-13T13:21:42;7.85;;;3.15;;
34741;SDS011;20968;42.696;23.360;2023-07-13T13:24:16;11.98;;;4.00;;
34741;SDS011;20968;42.696;23.360;2023-07-13T13:26:45;11.15;;;3.28;;
34741;SDS011;20968;42.696;23.360;2023-07-13T13:29:15;17.75;;;4.03;;
34741;SDS011;20968;42.696;23.360;2023-07-13T13:31:42;9.15;;;3.38;;
34741;SDS011;20968;42.696;23.360;2023-07-13T13:34:12;7.38;;;3.55;;
34741;SDS011;20968;42.696;23.360;2023-07-13T13:36:39;6.68;;;2.65;;
34741;SDS011;20968;42.696;23.360;2023-07-13T13:39:28;4.10;;;3.10;;
34741;SDS011;20968;42.696;23.360;2023-07-13T13:42:01;10.55;;;4.45;;
34741;SDS011;20968;42.696;23.360;2023-07-13T13:44:27;8.25;;;3.00;;
34741;SDS011;20968;42.696;23.360;2023-07-13T13:46:53;4.78;;;2.95;;
34741;SDS011;20968;42.696;23.360;2023-07-13T13:49:24;13.45;;;3.65;;
34741;SDS011;20968;42.696;23.360;2023-07-13T13:51:51;7.20;;;3.22;;
34741;SDS011;20968;42.696;23.360;2023-07-13T13:54:18;5.65;;;3.03;;
34741;SDS011;20968;42.696;23.360;2023-07-13T13:56:47;23.67;;;4.35;;
34741;SDS011;20968;42.696;23.360;2023-07-13T13:59:14;8.65;;;2.88;;
34741;SDS011;20968;42.696;23.360;2023-07-13T14:01:40;13.38;;;3.05;;
34741;SDS011;20968;42.696;23.360;2023-07-13T14:04:08;7.05;;;3.40;;
34741;SDS011;20968;42.696;23.360;2023-07-13T14:06:42;8.02;;;3.17;;
34741;SDS011;20968;42.696;23.360;2023-07-13T14:09:10;5.20;;;2.83;;
34741;SDS011;20968;42.696;23.360;2023-07-13T14:11:37;11.63;;;3.67;;
34741;SDS011;20968;42.696;23.360;2023-07-13T14:14:04;11.75;;;3.15;;
34741;SDS011;20968;42.696;23.360;2023-07-13T14:16:30;8.23;;;3.05;;
34741;SDS011;20968;42.696;23.360;2023-07-13T14:18:59;13.60;;;4.72;;
34741;SDS011;20968;42.696;23.360;2023-07-13T14:21:25;5.57;;;2.78;;
34741;SDS011;20968;42.696;23.360;2023-07-13T14:23:53;6.57;;;2.90;;
34741;SDS011;20968;42.696;23.360;2023-07-13T14:26:20;7.57;;;2.72;;
34741;SDS011;20968;42.696;23.360;2023-07-13T14:28:48;8.75;;;3.25;;
34741;SDS011;20968;42.696;23.360;2023-07-13T14:31:19;6.22;;;3.15;;
34741;SDS011;20968;42.696;23.360;2023-07-13T14:33:46;6.60;;;3.28;;
34741;SDS011;20968;42.696;23.360;2023-07-13T14:38:52;11.30;;;3.58;;
34741;SDS011;20968;42.696;23.360;2023-07-13T14:41:18;10.40;;;3.33;;
34741;SDS011;20968;42.696;23.360;2023-07-13T14:43:44;6.60;;;2.88;;
34741;SDS011;20968;42.696;23.360;2023-07-13T14:46:24;6.05;;;2.72;;
34741;SDS011;20968;42.696;23.360;2023-07-13T14:49:07;8.85;;;3.55;;
34741;SDS011;20968;42.696;23.360;2023-07-13T14:51:35;8.23;;;3.03;;
34741;SDS011;20968;42.696;23.360;2023-07-13T14:54:02;5.03;;;2.95;;
34741;SDS011;20968;42.696;23.360;2023-07-13T14:56:30;7.78;;;3.33;;
34741;SDS011;20968;42.696;23.360;2023-07-13T14:58:56;14.32;;;3.50;;
34741;SDS011;20968;42.696;23.360;2023-07-13T15:01:21;10.25;;;3.83;;
34741;SDS011;20968;42.696;23.360;2023-07-13T15:03:51;8.15;;;3.85;;
34741;SDS011;20968;42.696;23.360;2023-07-13T15:06:18;14.50;;;4.00;;
34741;SDS011;20968;42.696;23.360;2023-07-13T15:08:44;4.55;;;2.72;;
34741;SDS011;20968;42.696;23.360;2023-07-13T15:11:10;6.43;;;3.78;;
34741;SDS011;20968;42.696;23.360;2023-07-13T15:13:39;10.48;;;3.42;;
34741;SDS011;20968;42.696;23.360;2023-07-13T15:16:18;6.80;;;3.47;;
34741;SDS011;20968;42.696;23.360;2023-07-13T15:18:50;8.73;;;3.72;;
34741;SDS011;20968;42.696;23.360;2023-07-13T15:21:20;6.18;;;3.72;;
34741;SDS011;20968;42.696;23.360;2023-07-13T15:23:47;9.60;;;3.03;;
34741;SDS011;20968;42.696;23.360;2023-07-13T15:26:14;9.88;;;3.13;;
34741;SDS011;20968;42.696;23.360;2023-07-13T15:28:41;9.50;;;4.00;;